Time;durP1;ratioP1;P1;durP2;ratioP2;P2;SDS_P1;SDS_P2;PMS_P1;PMS_P2;Temp;Humidity;BMP_temperature;BMP_pressure;BME280_temperature;BME280_humidity;BME280_pressure;Samples;Min_cycle;Max_cycle;Signal;HPM_P1;HPM_P2
2022/04/21 00:00:43;;;;;;;38.72;22.05;;;;;;;11.76;75.85;99911.97;4811134;29;20034;-75
2022/04/21 00:03:09;;;;;;;47.00;26.98;;;;;;;11.66;78.60;99911.38;4811243;29;20046;-75
2022/04/21 00:05:34;;;;;;;43.65;25.27;;;;;;;11.65;78.10;99902.22;4810981;29;20492;-75
2022/04/21 00:08:00;;;;;;;41.25;24.23;;;;;;;11.59;77.47;99898.75;4781042;29;20125;-75
2022/04/21 00:10:26;;;;;;;43.30;24.75;;;;;;;11.58;78.41;99901.84;4824987;29;20469;-76
2022/04/21 00:12:51;;;;;;;42.33;25.17;;;;;;;11.56;78.33;99895.75;4827570;29;20488;-75
2022/04/21 00:15:17;;;;;;;47.75;30.02;;;;;;;11.44;82.34;99887.16;4810455;29;20046;-76
2022/04/21 00:17:43;;;;;;;43.92;26.52;;;;;;;11.44;80.14;99882.44;4823099;29;20030;-76
2022/04/21 00:20:09;;;;;;;41.40;24.05;;;;;;;11.45;78.72;99880.47;4811065;29;20038;-76
2022/04/21 00:25:18;;;;;;;38.40;24.35;;;;;;;11.49;78.18;99887.06;4810415;29;20027;-75
2022/04/21 00:27:44;;;;;;;39.55;25.20;;;;;;;11.44;79.05;99876.06;4827218;29;20038;-75
2022/04/21 00:30:11;;;;;;;41.88;26.17;;;;;;;11.47;78.70;99883.75;4810714;29;20129;-75
2022/04/21 00:32:37;;;;;;;41.47;25.45;;;;;;;11.47;78.43;99881.78;4794352;29;20058;-75
2022/04/21 00:35:06;;;;;;;35.75;23.65;;;;;;;11.43;77.96;99874.41;4765861;29;20167;-75
2022/04/21 00:37:32;;;;;;;42.97;24.60;;;;;;;11.43;78.14;99869.66;4810799;29;20190;-75
2022/04/21 00:39:57;;;;;;;43.40;26.13;;;;;;;11.40;78.70;99873.91;4810694;29;20113;-75
2022/04/21 00:42:23;;;;;;;35.80;23.10;;;;;;;11.41;77.97;99874.72;4810746;29;20034;-75
2022/04/21 00:44:51;;;;;;;40.38;23.65;;;;;;;11.42;77.92;99873.56;4810396;29;20105;-75
2022/04/21 00:47:17;;;;;;;36.70;24.23;;;;;;;11.43;77.63;99872.44;4811029;29;20065;-75
2022/04/21 00:49:44;;;;;;;43.40;25.00;;;;;;;11.43;77.71;99866.91;4795432;29;20038;-75
2022/04/21 00:52:09;;;;;;;40.35;26.42;;;;;;;11.40;78.22;99865.56;4795554;29;20038;-75
2022/04/21 00:54:35;;;;;;;37.20;23.48;;;;;;;11.43;78.73;99860.50;4800208;29;20071;-75
2022/04/21 00:57:00;;;;;;;39.08;23.33;;;;;;;11.43;77.47;99854.97;4829639;29;20041;-75
2022/04/21 00:59:26;;;;;;;43.88;26.63;;;;;;;11.43;77.63;99852.19;4826725;29;20034;-75
2022/04/21 01:04:36;;;;;;;45.22;28.27;;;;;;;11.33;79.28;99848.47;4812860;29;20110;-75
2022/04/21 01:07:01;;;;;;;39.03;23.02;;;;;;;11.34;77.89;99844.59;4786617;29;20030;-75
2022/04/21 01:09:27;;;;;;;41.80;26.58;;;;;;;11.34;77.87;99854.88;4810241;29;20053;-75
2022/04/21 01:11:52;;;;;;;40.50;25.02;;;;;;;11.29;78.16;99841.94;4794860;29;20076;-75
2022/04/21 01:14:19;;;;;;;46.00;27.75;;;;;;;11.26;80.49;99847.31;4826009;29;20034;-75
2022/04/21 01:16:45;;;;;;;45.60;29.27;;;;;;;11.21;81.23;99845.47;4818471;29;20034;-75
2022/04/21 01:19:11;;;;;;;48.63;29.52;;;;;;;11.18;81.63;99834.97;4810572;29;20432;-75
2022/04/21 01:21:36;;;;;;;54.70;32.40;;;;;;;11.13;84.61;99835.91;4795278;29;20099;-75
2022/04/21 01:24:04;;;;;;;43.72;27.20;;;;;;;11.11;81.12;99829.00;4826806;29;20406;-74
2022/04/21 01:26:35;;;;;;;46.70;26.95;;;;;;;11.10;82.18;99830.97;4822270;29;20034;-75
2022/04/21 01:29:02;;;;;;;47.00;30.63;;;;;;;11.04;83.52;99825.88;4791286;29;20050;-75
2022/04/21 01:31:28;;;;;;;56.05;33.20;;;;;;;10.94;86.03;99830.50;4803949;29;20031;-75
2022/04/21 01:33:53;;;;;;;44.45;27.15;;;;;;;10.95;83.16;99818.28;4798613;29;20058;-75
2022/04/21 01:36:19;;;;;;;52.03;30.50;;;;;;;10.95;84.45;99823.03;4798702;29;20042;-75
2022/04/21 01:41:29;;;;;;;46.80;28.83;;;;;;;10.90;82.63;99817.56;4829827;29;20370;-75
2022/04/21 01:43:54;;;;;;;51.97;31.95;;;;;;;10.85;85.39;99815.72;4798573;29;20099;-75
2022/04/21 01:46:20;;;;;;;47.38;29.67;;;;;;;10.85;82.98;99815.72;4798636;29;20039;-75
2022/04/21 01:48:45;;;;;;;48.88;28.98;;;;;;;10.86;82.31;99817.34;4783398;29;20042;-75
2022/04/21 01:51:11;;;;;;;52.88;31.92;;;;;;;10.79;84.80;99811.41;4798342;29;20041;-75
2022/04/21 01:53:36;;;;;;;49.45;30.00;;;;;;;10.77;83.63;99810.91;4798512;29;20086;-75
2022/04/21 01:56:02;;;;;;;46.40;29.80;;;;;;;10.77;83.03;99808.13;4829696;29;20532;-75
2022/04/21 01:58:27;;;;;;;45.78;29.35;;;;;;;10.79;82.59;99814.19;4798153;29;20163;-76
2022/04/21 02:00:53;;;;;;;44.80;28.17;;;;;;;10.78;83.92;99807.00;4813334;29;20030;-76
2022/04/21 02:03:18;;;;;;;46.95;27.50;;;;;;;10.79;82.04;99800.31;4798225;29;20055;-76
2022/04/21 02:05:44;;;;;;;55.83;31.33;;;;;;;10.76;84.95;99805.69;4813121;29;20038;-76
2022/04/21 02:08:09;;;;;;;48.20;29.98;;;;;;;10.74;83.54;99798.47;4797891;29;20078;-76
2022/04/21 02:10:35;;;;;;;55.40;32.63;;;;;;;10.71;84.24;99803.84;4825061;29;20026;-76
2022/04/21 02:13:00;;;;;;;48.15;29.83;;;;;;;10.69;84.29;99801.34;4797949;29;20034;-76
2022/04/21 02:15:26;;;;;;;52.72;30.33;;;;;;;10.69;83.82;99798.56;4811620;29;20042;-76
2022/04/21 02:17:52;;;;;;;52.78;30.50;;;;;;;10.68;82.46;99794.16;4772445;29;20035;-75
2022/04/21 02:20:17;;;;;;;50.15;32.25;;;;;;;10.64;85.27;99787.59;4768237;29;20030;-76
2022/04/21 02:22:43;;;;;;;56.15;32.35;;;;;;;10.66;83.60;99790.06;4783047;29;20091;-75
2022/04/21 02:25:10;;;;;;;48.50;29.27;;;;;;;10.64;83.96;99790.38;4782803;29;20098;-76
2022/04/21 02:27:36;;;;;;;47.08;29.13;;;;;;;10.67;82.54;99789.75;4767974;29;20031;-76
2022/04/21 02:30:03;;;;;;;49.20;30.65;;;;;;;10.68;83.01;99791.38;4812717;29;20038;-76
2022/04/21 02:32:29;;;;;;;63.20;37.63;;;;;;;10.59;87.26;99784.94;4819406;29;20077;-76
2022/04/21 02:34:54;;;;;;;63.90;37.03;;;;;;;10.57;87.39;99780.81;4812491;29;20041;-76
2022/04/21 02:37:21;;;;;;;48.47;30.83;;;;;;;10.59;84.70;99784.13;4812913;29;20377;-76
2022/04/21 02:39:47;;;;;;;51.00;33.60;;;;;;;10.59;85.21;99776.59;4812822;29;20476;-75
2022/04/21 02:42:12;;;;;;;52.15;30.23;;;;;;;10.60;83.80;99780.19;4812573;29;20061;-76
2022/04/21 02:44:41;;;;;;;56.13;33.72;;;;;;;10.58;85.60;99776.91;4812354;29;20038;-76
2022/04/21 02:47:07;;;;;;;53.97;33.67;;;;;;;10.57;85.29;99772.50;4812725;29;20484;-76
2022/04/21 02:49:35;;;;;;;49.95;32.45;;;;;;;10.54;85.14;99764.78;4828609;29;20030;-76
2022/04/21 02:52:01;;;;;;;49.17;31.83;;;;;;;10.50;85.54;99768.19;4812739;29;20030;-76
2022/04/21 02:57:23;;;;;;;60.47;37.17;;;;;;;10.41;87.08;99761.72;4814986;29;20038;-76
2022/04/21 02:59:52;;;;;;;48.35;30.80;;;;;;;10.44;85.51;99761.09;4802523;29;20027;-76
2022/04/21 03:02:18;;;;;;;56.40;33.75;;;;;;;10.44;86.57;99760.28;4811993;29;20026;-75
2022/04/21 03:04:43;;;;;;;59.88;36.45;;;;;;;10.42;86.72;99757.81;4797223;29;20038;-76
2022/04/21 03:07:09;;;;;;;54.40;34.65;;;;;;;10.45;86.69;99761.94;4828547;29;20042;-75
2022/04/21 03:09:34;;;;;;;55.60;34.38;;;;;;;10.46;85.02;99752.47;4828398;29;20042;-76
2022/04/21 03:12:04;;;;;;;55.92;33.63;;;;;;;10.48;85.40;99755.75;4811291;29;20035;-75
2022/04/21 03:14:29;;;;;;;53.67;32.90;;;;;;;10.45;85.33;99751.66;4796898;29;20034;-76
2022/04/21 03:16:55;;;;;;;56.50;35.35;;;;;;;10.41;87.79;99745.06;4816024;29;20030;-76
2022/04/21 03:19:21;;;;;;;51.92;32.17;;;;;;;10.42;85.88;99745.88;4828689;29;20034;-75
2022/04/21 03:24:31;;;;;;;52.58;33.33;;;;;;;10.44;85.14;99743.63;4828423;29;20090;-76
2022/04/21 03:26:57;;;;;;;48.42;30.27;;;;;;;10.45;84.48;99736.97;4781835;29;20121;-76
2022/04/21 03:29:22;;;;;;;53.22;32.70;;;;;;;10.45;84.65;99736.97;4781872;29;20031;-76
2022/04/21 03:31:48;;;;;;;54.53;33.22;;;;;;;10.45;84.95;99746.09;4802594;29;20125;-76
2022/04/21 03:34:15;;;;;;;71.05;42.15;;;;;;;10.35;89.59;99738.00;4811692;29;20058;-76
2022/04/21 03:36:50;;;;;;;58.03;34.85;;;;;;;10.35;85.84;99735.22;4796929;29;20035;-76
2022/04/21 03:39:20;;;;;;;63.42;37.75;;;;;;;10.37;86.96;99741.28;4796472;29;20027;-76
2022/04/21 03:41:46;;;;;;;58.38;34.30;;;;;;;10.38;85.22;99736.53;4828156;29;20035;-75
2022/04/21 03:44:11;;;;;;;52.03;33.00;;;;;;;10.40;86.48;99740.66;4827848;29;20039;-76
2022/04/21 03:46:38;;;;;;;57.97;35.50;;;;;;;10.39;84.66;99746.50;4811545;29;20037;-77
2022/04/21 03:49:06;;;;;;;59.15;36.20;;;;;;;10.38;84.89;99754.03;4827845;29;20045;-76
2022/04/21 03:51:32;;;;;;;58.08;33.35;;;;;;;10.44;83.77;99754.72;4785277;29;20038;-76
2022/04/21 03:53:57;;;;;;;55.65;33.53;;;;;;;10.41;83.67;99750.63;4795802;29;20034;-76
2022/04/21 03:56:23;;;;;;;55.08;34.78;;;;;;;10.41;84.37;99742.28;4778772;29;20034;-76
2022/04/21 03:58:49;;;;;;;64.68;38.53;;;;;;;10.40;86.42;99748.97;4821688;29;20030;-76
2022/04/21 04:01:14;;;;;;;59.20;35.25;;;;;;;10.40;83.78;99739.84;4827641;29;20045;-76
2022/04/21 04:03:40;;;;;;;61.60;36.78;;;;;;;10.37;85.67;99738.50;4796228;29;20034;-76
2022/04/21 04:10:51;;;;;;;54.72;34.65;;;;;;;10.37;84.64;99738.50;4781295;29;20120;-76
2022/04/21 04:11:38;;;;;;;56.20;33.45;;;;;;;10.38;84.41;99742.09;4813397;29;20045;-76
2022/04/21 04:14:06;;;;;;;54.03;34.25;;;;;;;10.39;84.17;99735.41;4801502;29;20038;-76
2022/04/21 04:16:34;;;;;;;65.53;37.85;;;;;;;10.36;85.38;99736.84;4787488;29;20034;-76
2022/04/21 04:19:00;;;;;;;61.25;35.65;;;;;;;10.35;84.40;99735.22;4781636;29;20107;-76
2022/04/21 04:21:26;;;;;;;58.60;34.55;;;;;;;10.33;84.36;99734.69;4795986;29;20038;-76
2022/04/21 04:23:51;;;;;;;62.05;37.85;;;;;;;10.33;86.18;99743.03;4810986;29;20625;-76
2022/04/21 04:26:17;;;;;;;57.13;36.70;;;;;;;10.33;84.51;99742.22;4827617;29;20057;-76
2022/04/21 04:28:42;;;;;;;60.63;36.78;;;;;;;10.30;84.69;99738.09;4810679;29;20668;-76
2022/04/21 04:31:08;;;;;;;64.85;38.42;;;;;;;10.29;85.42;99744.78;4788480;29;20031;-76
2022/04/21 04:33:34;;;;;;;59.58;38.50;;;;;;;10.26;86.14;99742.59;4824844;29;20123;-76
2022/04/21 04:36:00;;;;;;;61.97;36.85;;;;;;;10.25;85.28;99741.78;4795677;29;20117;-76
2022/04/21 04:38:26;;;;;;;63.17;36.80;;;;;;;10.23;84.74;99744.03;4795938;29;20031;-76
2022/04/21 04:40:51;;;;;;;56.40;34.72;;;;;;;10.22;84.39;99738.78;4766134;29;20129;-76
2022/04/21 04:43:17;;;;;;;62.78;38.40;;;;;;;10.21;86.11;99740.75;4765630;29;20030;-76
2022/04/21 04:48:26;;;;;;;62.65;37.88;;;;;;;10.11;87.76;99737.38;4797773;29;20030;-76
2022/04/21 04:50:52;;;;;;;74.90;43.65;;;;;;;10.07;88.87;99735.22;4792320;29;20707;-76
2022/04/21 04:53:17;;;;;;;68.40;40.47;;;;;;;10.09;89.01;99740.47;4802915;29;20034;-76
2022/04/21 04:55:42;;;;;;;68.70;40.33;;;;;;;10.10;87.39;99738.50;4821869;29;20046;-76
2022/04/21 04:58:08;;;;;;;65.70;39.40;;;;;;;10.09;87.46;99734.09;4810649;29;20473;-76
2022/04/21 05:00:33;;;;;;;63.15;38.17;;;;;;;10.05;87.68;99734.69;4822798;29;20048;-76
2022/04/21 05:02:59;;;;;;;62.72;37.75;;;;;;;10.05;86.31;99731.09;4810577;29;20042;-76
2022/04/21 05:05:24;;;;;;;65.47;37.38;;;;;;;10.04;86.74;99730.28;4808875;29;20033;-76
2022/04/21 05:07:50;;;;;;;68.88;40.63;;;;;;;10.02;88.34;99732.53;4814167;29;20042;-76
2022/04/21 05:10:18;;;;;;;66.47;40.30;;;;;;;9.98;88.57;99725.16;4830206;29;20399;-76
2022/04/21 05:12:44;;;;;;;63.75;37.28;;;;;;;9.98;86.66;99726.00;4814506;29;20089;-76
2022/04/21 05:15:09;;;;;;;61.30;38.03;;;;;;;9.97;87.46;99724.34;4813816;29;20062;-76
2022/04/21 05:17:35;;;;;;;55.20;36.22;;;;;;;9.97;87.26;99726.28;4786976;29;20092;-76
2022/04/21 05:20:01;;;;;;;61.00;35.95;;;;;;;9.98;86.03;99726.00;4830222;29;20039;-76
2022/04/21 05:22:34;;;;;;;66.35;40.40;;;;;;;9.97;87.24;99718.81;4752050;29;20054;-76
2022/04/21 05:25:00;;;;;;;67.00;40.13;;;;;;;9.95;87.73;99725.78;4795067;29;20042;-76
2022/04/21 05:27:25;;;;;;;71.93;44.30;;;;;;;9.89;91.24;99727.00;4795981;29;20164;-76
2022/04/21 05:32:36;;;;;;;78.05;44.22;;;;;;;9.85;90.14;99732.34;4803311;29;20057;-76
2022/04/21 05:35:02;;;;;;;69.72;41.05;;;;;;;9.86;88.74;99731.22;4814005;29;20057;-76
2022/04/21 05:37:28;;;;;;;70.25;40.97;;;;;;;9.86;88.17;99733.97;4813673;29;20066;-76
2022/04/21 05:39:54;;;;;;;65.57;39.88;;;;;;;9.89;87.41;99738.09;4829971;29;20113;-76
2022/04/21 05:42:23;;;;;;;65.95;40.42;;;;;;;9.90;87.76;99734.22;4813557;29;20045;-77
2022/04/21 05:44:52;;;;;;;71.05;41.60;;;;;;;9.90;88.81;99729.47;4792153;29;20034;-76
2022/04/21 05:47:18;;;;;;;65.00;38.88;;;;;;;9.92;87.23;99735.56;4805328;29;20038;-76
2022/04/21 05:49:44;;;;;;;65.60;38.75;;;;;;;9.94;86.93;99736.03;4798426;29;20477;-76
2022/04/21 05:52:09;;;;;;;72.10;43.50;;;;;;;9.94;87.11;99736.03;4783496;29;20077;-76
2022/04/21 05:54:35;;;;;;;68.50;39.25;;;;;;;9.95;87.44;99743.25;4782310;29;20052;-76
2022/04/21 05:57:01;;;;;;;63.05;38.67;;;;;;;9.98;86.75;99736.25;4829464;29;20038;-76
2022/04/21 05:59:26;;;;;;;67.15;40.17;;;;;;;10.02;87.28;99737.28;4829215;29;20496;-76
2022/04/21 06:01:52;;;;;;;70.15;40.67;;;;;;;10.04;89.06;99730.28;4829464;29;20030;-76
2022/04/21 06:04:21;;;;;;;75.07;42.60;;;;;;;10.06;89.90;99730.00;4829196;29;20480;-76
2022/04/21 06:06:46;;;;;;;75.68;43.45;;;;;;;10.10;91.07;99732.97;4798613;29;20039;-76
2022/04/21 06:09:12;;;;;;;83.70;44.85;;;;;;;10.09;92.27;99731.34;4787184;29;20115;-76
2022/04/21 06:11:37;;;;;;;82.07;47.28;;;;;;;10.10;91.98;99738.50;4792880;29;20046;-77
2022/04/21 06:14:06;;;;;;;78.47;44.58;;;;;;;10.06;93.52;99739.13;4810415;29;20039;-76
2022/04/21 06:16:31;;;;;;;95.30;53.05;;;;;;;10.04;95.65;99732.25;4773239;29;20046;-76
2022/04/21 06:18:56;;;;;;;66.80;39.67;;;;;;;10.05;90.29;99729.16;4795580;29;20035;-75
2022/04/21 06:21:22;;;;;;;70.95;40.97;;;;;;;10.12;89.31;99725.16;4813100;29;20090;-76
2022/04/21 06:23:47;;;;;;;73.38;42.45;;;;;;;10.18;89.63;99735.81;4812957;29;20030;-76
2022/04/21 06:26:13;;;;;;;76.15;42.55;;;;;;;10.22;88.17;99739.63;4783299;29;20039;-69
2022/04/21 06:28:41;;;;;;;65.32;39.42;;;;;;;10.28;87.92;99740.38;4815558;29;20031;-68
2022/04/21 06:31:07;;;;;;;70.50;40.67;;;;;;;10.33;89.90;99736.66;4810313;29;20039;-71
2022/04/21 06:33:32;;;;;;;69.22;41.65;;;;;;;10.39;88.84;99735.41;4826526;29;20050;-72
2022/04/21 06:35:59;;;;;;;71.20;43.20;;;;;;;10.46;89.58;99738.59;4812691;29;20042;-71
2022/04/21 06:38:25;;;;;;;78.45;44.53;;;;;;;10.52;92.24;99746.47;4828864;29;20042;-71
2022/04/21 06:40:50;;;;;;;85.72;49.60;;;;;;;10.58;96.50;99735.25;4829014;29;20031;-71
2022/04/21 06:48:46;;;;;;;90.55;50.55;;;;;;;10.86;96.17;99735.97;4814893;29;20173;-71
2022/04/21 06:51:11;;;;;;;96.88;52.90;;;;;;;10.95;97.36;99734.94;4828832;29;20052;-71
2022/04/21 06:53:39;;;;;;;99.05;54.63;;;;;;;11.08;97.26;99740.72;4811285;29;20129;-71
2022/04/21 06:56:05;;;;;;;86.72;50.50;;;;;;;11.24;95.81;99730.88;4828603;29;20038;-71
2022/04/21 06:58:31;;;;;;;82.45;49.53;;;;;;;11.39;95.21;99729.63;4828551;29;20041;-71
2022/04/21 07:00:56;;;;;;;86.47;49.15;;;;;;;11.56;94.11;99726.13;4803317;29;20038;-71
2022/04/21 07:03:22;;;;;;;86.57;49.10;;;;;;;11.73;93.47;99729.00;4828646;29;20041;-72
2022/04/21 07:05:51;;;;;;;79.85;47.92;;;;;;;11.88;93.55;99722.22;4812682;29;20054;-71
2022/04/21 07:08:17;;;;;;;76.22;44.88;;;;;;;12.10;91.20;99731.63;4828102;29;20042;-72
2022/04/21 07:10:42;;;;;;;78.53;46.70;;;;;;;12.25;91.63;99722.81;4828288;29;20500;-72
2022/04/21 07:13:11;;;;;;;86.95;50.75;;;;;;;12.42;92.56;99727.56;4828016;29;20373;-72
2022/04/21 07:15:37;;;;;;;76.40;46.15;;;;;;;12.63;90.64;99725.81;4825453;29;20034;-72
2022/04/21 07:18:03;;;;;;;82.30;47.78;;;;;;;12.85;91.26;99726.81;4817086;29;20105;-72
2022/04/21 07:20:28;;;;;;;78.57;45.17;;;;;;;13.02;90.13;99718.41;4826763;29;20037;-72
2022/04/21 07:22:54;;;;;;;75.78;46.72;;;;;;;13.21;90.36;99711.69;4828367;29;20039;-71
2022/04/21 07:25:20;;;;;;;74.28;43.90;;;;;;;13.44;88.50;99721.47;4827990;29;20042;-71
2022/04/21 07:27:45;;;;;;;71.68;43.10;;;;;;;13.63;86.33;99721.91;4827204;29;20049;-72
2022/04/21 07:30:11;;;;;;;68.13;41.08;;;;;;;13.81;85.74;99724.63;4827823;29;20038;-72
2022/04/21 07:32:37;;;;;;;73.78;42.65;;;;;;;13.98;84.13;99718.97;4820429;29;20058;-71
2022/04/21 07:35:03;;;;;;;66.82;42.72;;;;;;;14.18;82.87;99722.13;4828536;29;20034;-71
2022/04/21 07:37:30;;;;;;;71.97;41.17;;;;;;;14.35;82.70;99719.25;4827912;29;20038;-71
2022/04/21 07:39:55;;;;;;;61.60;38.53;;;;;;;14.54;81.66;99727.19;4814518;29;20574;-71
2022/04/21 07:42:22;;;;;;;56.65;37.13;;;;;;;14.73;81.29;99723.94;4837066;29;20038;-71
2022/04/21 07:44:48;;;;;;;59.67;37.65;;;;;;;14.93;79.70;99720.34;4789680;29;20040;-71
2022/04/21 07:47:13;;;;;;;54.50;34.75;;;;;;;15.10;78.17;99724.94;4796272;29;20034;-71
2022/04/21 07:49:45;;;;;;;58.10;35.85;;;;;;;15.31;77.59;99727.69;4796328;29;20041;-71
2022/04/21 07:54:54;;;;;;;50.55;33.15;;;;;;;15.75;75.13;99724.44;4827883;29;20060;-72
2022/04/21 07:57:20;;;;;;;50.45;29.52;;;;;;;15.89;72.15;99724.09;4810967;29;20034;-72
2022/04/21 07:59:47;;;;;;;42.42;26.35;;;;;;;16.12;69.69;99725.28;4827802;29;20468;-72
2022/04/21 08:02:13;;;;;;;46.95;29.42;;;;;;;16.23;69.98;99723.63;4830742;29;20249;-72
2022/04/21 08:04:39;;;;;;;45.33;27.98;;;;;;;16.46;70.72;99723.13;4811164;29;20425;-71
2022/04/21 08:07:05;;;;;;;45.90;28.08;;;;;;;16.59;68.93;99730.34;4811348;29;20041;-72
2022/04/21 08:09:30;;;;;;;47.55;28.48;;;;;;;16.78;69.00;99724.16;4827438;29;20034;-71
2022/04/21 08:11:56;;;;;;;46.35;28.55;;;;;;;16.84;66.26;99725.53;4827644;29;20073;-72
2022/04/21 08:14:23;;;;;;;41.90;27.23;;;;;;;17.03;66.56;99722.09;4827444;29;20459;-72
2022/04/21 08:16:48;;;;;;;44.78;29.88;;;;;;;17.20;68.31;99720.97;4821428;29;20065;-72
2022/04/21 08:19:14;;;;;;;40.38;26.27;;;;;;;17.32;66.55;99720.06;4811094;29;20038;-72
2022/04/21 08:21:39;;;;;;;41.13;24.30;;;;;;;17.45;64.22;99716.03;4827360;29;20038;-72
2022/04/21 08:35:01;;;;;;;31.13;20.98;;;;;;;18.27;61.13;99706.09;4810655;29;20045;-71
2022/04/21 08:37:30;;;;;;;31.83;20.58;;;;;;;18.38;61.02;99709.97;4827389;29;20030;-71
2022/04/21 08:39:55;;;;;;;34.40;21.92;;;;;;;18.44;58.81;99704.88;4810594;29;20511;-72
2022/04/21 08:42:21;;;;;;;33.53;20.23;;;;;;;18.55;57.75;99703.09;4827190;29;20038;-72
2022/04/21 08:44:47;;;;;;;29.40;19.48;;;;;;;18.73;58.32;99701.50;4810787;29;20026;-72
2022/04/21 08:47:14;;;;;;;26.25;18.90;;;;;;;18.79;56.76;99701.25;4795678;29;20042;-72
2022/04/21 08:49:40;;;;;;;29.10;20.48;;;;;;;18.94;58.06;99701.19;4826936;29;20034;-72
2022/04/21 08:52:06;;;;;;;33.72;20.08;;;;;;;19.08;58.17;99700.66;4810779;29;20113;-72
2022/04/21 08:54:31;;;;;;;28.40;19.40;;;;;;;19.19;58.10;99700.88;4810318;29;20091;-72
2022/04/21 08:56:57;;;;;;;34.42;19.55;;;;;;;19.29;57.23;99703.09;4822797;29;20034;-72
2022/04/21 08:59:23;;;;;;;26.35;17.98;;;;;;;19.41;55.09;99705.72;4810314;29;20038;-72
2022/04/21 09:01:49;;;;;;;27.13;17.08;;;;;;;19.56;54.20;99706.00;4826934;29;20022;-71
2022/04/21 09:04:15;;;;;;;22.85;15.85;;;;;;;19.67;54.83;99704.22;4826872;29;20041;-72
2022/04/21 09:06:40;;;;;;;22.73;14.68;;;;;;;19.86;55.85;99701.34;4827030;29;20043;-71
2022/04/21 09:09:21;;;;;;;27.08;16.90;;;;;;;19.90;54.31;99703.41;4826587;29;20038;-72
2022/04/21 09:11:50;;;;;;;23.15;15.70;;;;;;;20.05;52.31;99697.63;4810584;29;20448;-72
2022/04/21 09:14:17;;;;;;;16.55;12.07;;;;;;;20.26;53.35;99693.53;4818821;29;20034;-72
2022/04/21 09:16:42;;;;;;;21.42;11.88;;;;;;;20.37;52.09;99694.50;4800728;29;20120;-72
2022/04/21 09:19:08;;;;;;;20.90;12.68;;;;;;;20.45;49.54;99692.59;4831599;29;20030;-72
2022/04/21 09:21:37;;;;;;;16.77;9.57;;;;;;;20.47;47.60;99688.19;4833101;29;20030;-72
2022/04/21 09:24:21;;;;;;;13.35;7.38;;;;;;;20.50;45.52;99695.06;4826795;29;20030;-72
2022/04/21 09:26:47;;;;;;;10.13;6.75;;;;;;;20.55;45.03;99689.13;4826806;29;20094;-72
2022/04/21 09:29:21;;;;;;;10.80;7.00;;;;;;;20.71;44.30;99694.59;4826419;29;20038;-72
2022/04/21 09:31:46;;;;;;;10.38;6.18;;;;;;;20.84;44.49;99687.53;4817248;29;20544;-72
2022/04/21 09:34:12;;;;;;;11.75;6.10;;;;;;;20.86;42.40;99699.22;4826415;29;20058;-71
2022/04/21 09:36:38;;;;;;;8.98;5.68;;;;;;;21.01;45.11;99682.50;4829389;29;20488;-72
2022/04/21 09:39:03;;;;;;;9.73;5.05;;;;;;;20.97;43.45;99679.59;4819782;29;20058;-72
2022/04/21 09:41:29;;;;;;;9.82;5.30;;;;;;;20.94;41.01;99680.38;4826526;29;20039;-71
2022/04/21 09:46:07;;;;;;;10.05;5.05;;;;;;;21.07;41.45;99678.94;4826297;29;20042;-71
2022/04/21 09:46:51;;;;;;;5.93;4.13;;;;;;;21.30;43.26;99680.78;4814803;29;20067;-71
2022/04/21 09:49:36;;;;;;;7.38;4.70;;;;;;;21.38;42.50;99677.69;4826322;29;20027;-71
2022/04/21 09:52:02;;;;;;;7.80;4.50;;;;;;;21.37;40.73;99681.72;4828585;29;20111;-71
2022/04/21 09:54:28;;;;;;;10.27;5.40;;;;;;;21.37;39.70;99678.09;4812969;29;20038;-71
2022/04/21 09:56:53;;;;;;;8.82;4.53;;;;;;;21.45;39.32;99676.94;4829765;29;20117;-71
2022/04/21 09:59:19;;;;;;;7.65;4.43;;;;;;;21.40;38.36;99680.13;4813254;29;20041;-71
2022/04/21 10:01:45;;;;;;;8.23;4.30;;;;;;;21.54;38.02;99682.28;4829560;29;20046;-71
2022/04/21 10:04:11;;;;;;;8.60;4.63;;;;;;;21.57;37.38;99684.34;4829346;29;20046;-71
2022/04/21 10:06:40;;;;;;;7.78;4.22;;;;;;;21.70;37.93;99679.19;4829549;29;20038;-71
2022/04/21 10:09:06;;;;;;;6.82;4.00;;;;;;;21.75;35.64;99673.19;4829152;29;20072;-71
2022/04/21 10:11:32;;;;;;;5.45;4.00;;;;;;;21.70;36.06;99677.19;4783249;29;20078;-71
2022/04/21 10:13:58;;;;;;;7.63;4.30;;;;;;;21.69;36.20;99669.09;4812955;29;20030;-71
2022/04/21 10:16:26;;;;;;;8.82;4.60;;;;;;;21.75;35.32;99667.53;4820783;29;20160;-71
2022/04/21 10:18:52;;;;;;;8.05;4.15;;;;;;;21.71;36.05;99661.06;4809302;29;20042;-71
2022/04/21 10:21:42;;;;;;;6.65;4.20;;;;;;;21.63;36.56;99660.97;4813033;29;20036;-71
2022/04/21 10:24:07;;;;;;;7.05;3.80;;;;;;;21.76;36.02;99657.88;4818805;29;20061;-71
2022/04/21 10:26:43;;;;;;;7.80;4.10;;;;;;;21.93;35.39;99657.22;4835712;29;20369;-72
2022/04/21 10:29:13;;;;;;;6.25;3.70;;;;;;;22.09;36.51;99654.91;4817332;29;20037;-72
2022/04/21 10:31:59;;;;;;;9.20;3.60;;;;;;;22.19;37.58;99646.91;4819504;29;20034;-72
2022/04/21 10:34:34;;;;;;;5.00;3.85;;;;;;;22.25;36.49;99646.16;4824120;29;20081;-71
2022/04/21 10:37:08;;;;;;;7.43;3.90;;;;;;;22.34;35.51;99634.47;4828038;29;20050;-72
2022/04/21 10:39:34;;;;;;;4.28;3.38;;;;;;;22.47;36.34;99638.59;4831466;29;20039;-72
2022/04/21 10:42:05;;;;;;;7.18;3.83;;;;;;;22.52;35.67;99638.22;4797071;29;20042;-71
2022/04/21 10:44:38;;;;;;;6.20;4.13;;;;;;;22.61;35.11;99635.03;4828369;29;20034;-72
2022/04/21 10:47:36;;;;;;;9.15;3.97;;;;;;;22.76;34.76;99635.91;4798021;29;20074;-72
2022/04/21 10:50:15;;;;;;;5.63;4.13;;;;;;;22.80;34.54;99628.25;4809170;29;20185;-72
2022/04/21 10:57:58;;;;;;;6.50;3.78;;;;;;;23.03;34.60;99625.13;4811896;29;20094;-72
2022/04/21 11:00:30;;;;;;;6.68;4.10;;;;;;;23.15;34.52;99618.25;4812180;29;20058;-71
2022/04/21 11:03:06;;;;;;;6.25;4.03;;;;;;;23.26;34.53;99621.91;4822001;29;20034;-72
2022/04/21 11:05:38;;;;;;;6.03;3.97;;;;;;;23.33;34.01;99624.78;4812294;29;20480;-72
2022/04/21 11:08:10;;;;;;;8.52;4.00;;;;;;;23.47;34.00;99618.31;4812060;29;20576;-72
2022/04/21 11:10:38;;;;;;;5.97;3.67;;;;;;;23.57;34.63;99616.72;4824874;29;20038;-72
2022/04/21 11:13:16;;;;;;;6.43;4.38;;;;;;;23.54;34.73;99609.00;4828309;29;20042;-72
2022/04/21 11:15:45;;;;;;;6.68;4.60;;;;;;;23.49;34.25;99606.59;4808689;29;20035;-72
2022/04/21 11:18:29;;;;;;;6.15;4.07;;;;;;;23.41;32.80;99606.56;4820130;29;20044;-72
2022/04/21 11:21:27;;;;;;;8.65;4.35;;;;;;;23.45;34.96;99608.59;4801312;29;20416;-72
2022/04/21 11:23:52;;;;;;;6.20;4.22;;;;;;;23.26;33.60;99606.94;4828321;29;20131;-72
2022/04/21 11:26:24;;;;;;;7.97;4.60;;;;;;;23.26;31.58;99590.75;4828421;29;20042;-71
2022/04/21 11:28:50;;;;;;;7.97;4.28;;;;;;;23.30;32.14;99590.78;4811391;29;20118;-71
2022/04/21 11:31:15;;;;;;;7.05;3.97;;;;;;;22.99;32.65;99581.84;4820063;29;20039;-71
2022/04/21 11:33:44;;;;;;;7.05;4.72;;;;;;;23.14;33.07;99585.50;4795606;29;20058;-72
2022/04/21 11:36:12;;;;;;;6.70;4.30;;;;;;;23.10;33.63;99581.88;4812075;29;20057;-72
2022/04/21 11:38:41;;;;;;;10.75;4.50;;;;;;;23.00;32.82;99577.78;4828008;29;20041;-71
2022/04/21 11:41:07;;;;;;;9.32;4.30;;;;;;;23.04;33.73;99584.28;4828028;29;20035;-71
2022/04/21 11:43:33;;;;;;;9.10;4.05;;;;;;;23.14;35.18;99571.34;4811801;29;20034;-71
2022/04/21 11:46:06;;;;;;;5.72;4.25;;;;;;;23.22;35.35;99566.50;4811352;29;20045;-71
2022/04/21 11:48:33;;;;;;;10.13;4.97;;;;;;;23.18;33.71;99567.31;4826241;29;20504;-71
2022/04/21 11:50:59;;;;;;;5.45;4.32;;;;;;;23.04;34.27;99561.63;4827866;29;20552;-72
2022/04/21 11:53:27;;;;;;;6.40;4.75;;;;;;;23.05;33.92;99557.56;4809512;29;20038;-72
2022/04/21 11:55:53;;;;;;;12.13;5.00;;;;;;;23.03;33.64;99556.34;4828015;29;20453;-72
2022/04/21 11:58:35;;;;;;;7.45;4.93;;;;;;;23.00;32.77;99554.31;4827631;29;20034;-72
2022/04/21 12:06:50;;;;;;;;;;;;;;;22.87;34.90;99546.19;4828227;29;20060;-72
2022/04/21 12:09:17;;;;;;;5.80;4.25;;;;;;;22.92;34.92;99540.09;4827384;29;19921;-72
2022/04/21 12:11:47;;;;;;;7.68;4.55;;;;;;;22.91;33.84;99534.88;4817824;29;20109;-71
2022/04/21 12:14:13;;;;;;;6.75;4.45;;;;;;;23.04;34.79;99532.47;4815078;29;20086;-72